KGFA/GFA METAR and TAF weather

Enter ICAO airport designator
Station Type Date Time Source
KGFA METAR 2024/06/14 02:55 UTC NOAA

KGFA 140255Z AUTO 08007KT 10SM CLR 20/05 A2995 RMK AO2 SLP130 T02020046 57010 $


Station Type Date Time Source
KGFA Decoded METAR 2024/06/14 02:55 UTC NOAA

Malmstrom Air Force Base, MT, United States (KGFA) 47-30N 111-11W
Jun 13, 2024 - 10:55 PM EDT / 2024.06.14 0255 UTC
Wind: from the E (080 degrees) at 8 MPH (7 KT):0
Visibility: 10 mile(s):0
Sky conditions: clear
Temperature: 68.4 F (20.2 C)
Dew Point: 40.3 F (4.6 C)
Relative Humidity: 35%
Pressure (altimeter): 29.95 in. Hg (1014 hPa)
Pressure tendency: 0.03 inches (1.0 hPa) lower than three hours ago
ob: KGFA 140255Z AUTO 08007KT 10SM CLR 20/05 A2995 RMK AO2 SLP130 T02020046 57010
cycle: 3

Station Type Date Time Source
KGFA TAF 2024/06/13 21:58 UTC NOAA